sensor_id;sensor_type;location;lat;lon;timestamp;temperature;humidity
12872;DHT22;6504;53.766;9.626;2023-03-20T00:02:02;9.60;99.90
12872;DHT22;6504;53.766;9.626;2023-03-20T00:04:31;9.50;99.90
12872;DHT22;6504;53.766;9.626;2023-03-20T00:06:59;9.50;99.90
12872;DHT22;6504;53.766;9.626;2023-03-20T00:09:29;9.40;99.90
12872;DHT22;6504;53.766;9.626;2023-03-20T00:11:57;9.40;99.90
12872;DHT22;6504;53.766;9.626;2023-03-20T00:14:25;9.30;99.90
12872;DHT22;6504;53.766;9.626;2023-03-20T00:16:54;9.20;99.90
12872;DHT22;6504;53.766;9.626;2023-03-20T00:19:24;9.20;99.90
12872;DHT22;6504;53.766;9.626;2023-03-20T00:21:54;9.10;99.90
12872;DHT22;6504;53.766;9.626;2023-03-20T00:24:23;9.10;99.90
12872;DHT22;6504;53.766;9.626;2023-03-20T00:26:53;9.10;99.90
12872;DHT22;6504;53.766;9.626;2023-03-20T00:29:23;9.10;99.90
12872;DHT22;6504;53.766;9.626;2023-03-20T00:31:52;9.10;99.90
12872;DHT22;6504;53.766;9.626;2023-03-20T00:34:22;9.10;99.90
12872;DHT22;6504;53.766;9.626;2023-03-20T00:36:51;9.10;99.90
12872;DHT22;6504;53.766;9.626;2023-03-20T00:39:20;9.10;99.90
12872;DHT22;6504;53.766;9.626;2023-03-20T00:41:51;9.10;99.90
12872;DHT22;6504;53.766;9.626;2023-03-20T00:44:23;9.10;99.90
12872;DHT22;6504;53.766;9.626;2023-03-20T00:46:54;9.10;99.90
12872;DHT22;6504;53.766;9.626;2023-03-20T00:49:25;9.00;99.90
12872;DHT22;6504;53.766;9.626;2023-03-20T00:51:54;9.00;99.90
12872;DHT22;6504;53.766;9.626;2023-03-20T00:54:24;9.00;99.90
12872;DHT22;6504;53.766;9.626;2023-03-20T00:56:55;9.00;99.90
12872;DHT22;6504;53.766;9.626;2023-03-20T00:59:28;9.00;99.90
12872;DHT22;6504;53.766;9.626;2023-03-20T01:01:59;8.90;99.90
12872;DHT22;6504;53.766;9.626;2023-03-20T01:04:33;8.90;99.90
12872;DHT22;6504;53.766;9.626;2023-03-20T01:07:02;8.90;99.90
12872;DHT22;6504;53.766;9.626;2023-03-20T01:09:31;8.90;99.90
12872;DHT22;6504;53.766;9.626;2023-03-20T01:11:59;8.90;99.90
12872;DHT22;6504;53.766;9.626;2023-03-20T01:14:29;8.90;99.90
12872;DHT22;6504;53.766;9.626;2023-03-20T01:16:57;8.90;99.90
12872;DHT22;6504;53.766;9.626;2023-03-20T01:19:25;8.90;99.90
12872;DHT22;6504;53.766;9.626;2023-03-20T01:21:53;8.90;99.90
12872;DHT22;6504;53.766;9.626;2023-03-20T01:24:21;8.90;99.90
12872;DHT22;6504;53.766;9.626;2023-03-20T01:26:50;8.90;99.90
12872;DHT22;6504;53.766;9.626;2023-03-20T01:29:22;8.90;99.90
12872;DHT22;6504;53.766;9.626;2023-03-20T01:31:52;8.90;99.90
12872;DHT22;6504;53.766;9.626;2023-03-20T01:34:21;8.90;99.90
12872;DHT22;6504;53.766;9.626;2023-03-20T01:36:50;8.90;99.90
12872;DHT22;6504;53.766;9.626;2023-03-20T01:39:20;8.80;99.90
12872;DHT22;6504;53.766;9.626;2023-03-20T01:41:51;8.80;99.90
12872;DHT22;6504;53.766;9.626;2023-03-20T01:44:21;8.80;99.90
12872;DHT22;6504;53.766;9.626;2023-03-20T01:46:52;8.80;99.90
12872;DHT22;6504;53.766;9.626;2023-03-20T01:52:22;8.70;99.90
12872;DHT22;6504;53.766;9.626;2023-03-20T01:54:50;8.70;99.90
12872;DHT22;6504;53.766;9.626;2023-03-20T01:57:21;8.80;99.90
12872;DHT22;6504;53.766;9.626;2023-03-20T01:59:54;8.70;99.90
12872;DHT22;6504;53.766;9.626;2023-03-20T02:02:28;8.70;99.90
12872;DHT22;6504;53.766;9.626;2023-03-20T02:05:01;8.70;99.90
12872;DHT22;6504;53.766;9.626;2023-03-20T02:07:31;8.70;99.90
12872;DHT22;6504;53.766;9.626;2023-03-20T02:10:00;8.70;99.90
12872;DHT22;6504;53.766;9.626;2023-03-20T02:12:29;8.70;99.90
12872;DHT22;6504;53.766;9.626;2023-03-20T02:14:57;8.80;99.90
12872;DHT22;6504;53.766;9.626;2023-03-20T02:17:27;8.70;99.90
12872;DHT22;6504;53.766;9.626;2023-03-20T02:20:03;8.70;99.90
12872;DHT22;6504;53.766;9.626;2023-03-20T02:29:07;8.70;99.90
12872;DHT22;6504;53.766;9.626;2023-03-20T02:35:12;8.70;99.90
12872;DHT22;6504;53.766;9.626;2023-03-20T02:38:08;8.70;99.90
12872;DHT22;6504;53.766;9.626;2023-03-20T02:40:43;8.70;99.90
12872;DHT22;6504;53.766;9.626;2023-03-20T02:43:19;8.60;99.90
12872;DHT22;6504;53.766;9.626;2023-03-20T02:45:52;8.60;99.90
12872;DHT22;6504;53.766;9.626;2023-03-20T02:48:30;8.60;99.90
12872;DHT22;6504;53.766;9.626;2023-03-20T02:51:01;8.50;99.90
12872;DHT22;6504;53.766;9.626;2023-03-20T02:53:42;8.50;99.90
12872;DHT22;6504;53.766;9.626;2023-03-20T02:56:17;8.40;99.90
12872;DHT22;6504;53.766;9.626;2023-03-20T02:58:51;8.40;99.90
12872;DHT22;6504;53.766;9.626;2023-03-20T03:01:26;8.40;99.90
12872;DHT22;6504;53.766;9.626;2023-03-20T03:04:01;8.40;99.90
12872;DHT22;6504;53.766;9.626;2023-03-20T03:06:32;8.30;99.90
12872;DHT22;6504;53.766;9.626;2023-03-20T03:09:09;8.30;99.90
12872;DHT22;6504;53.766;9.626;2023-03-20T03:11:44;8.30;99.90
12872;DHT22;6504;53.766;9.626;2023-03-20T03:14:20;8.30;99.90
12872;DHT22;6504;53.766;9.626;2023-03-20T03:16:52;8.30;99.90
12872;DHT22;6504;53.766;9.626;2023-03-20T03:19:23;8.30;99.90
12872;DHT22;6504;53.766;9.626;2023-03-20T03:21:53;8.30;99.90
12872;DHT22;6504;53.766;9.626;2023-03-20T03:24:29;8.30;99.90
12872;DHT22;6504;53.766;9.626;2023-03-20T03:27:14;8.30;99.90
12872;DHT22;6504;53.766;9.626;2023-03-20T03:29:46;8.30;99.90
12872;DHT22;6504;53.766;9.626;2023-03-20T03:32:29;8.30;99.90
12872;DHT22;6504;53.766;9.626;2023-03-20T03:34:59;8.20;99.90
12872;DHT22;6504;53.766;9.626;2023-03-20T03:37:39;8.20;99.90
12872;DHT22;6504;53.766;9.626;2023-03-20T03:40:17;8.20;99.90
12872;DHT22;6504;53.766;9.626;2023-03-20T03:42:52;8.20;99.90
12872;DHT22;6504;53.766;9.626;2023-03-20T03:45:30;8.20;99.90
12872;DHT22;6504;53.766;9.626;2023-03-20T03:48:02;8.10;99.90
12872;DHT22;6504;53.766;9.626;2023-03-20T03:50:35;8.20;99.90
12872;DHT22;6504;53.766;9.626;2023-03-20T03:53:09;8.10;99.90
12872;DHT22;6504;53.766;9.626;2023-03-20T03:55:43;8.10;99.90
12872;DHT22;6504;53.766;9.626;2023-03-20T03:58:18;8.10;99.90
12872;DHT22;6504;53.766;9.626;2023-03-20T04:00:48;8.10;99.90
12872;DHT22;6504;53.766;9.626;2023-03-20T04:03:20;8.10;99.90
12872;DHT22;6504;53.766;9.626;2023-03-20T04:05:51;8.00;99.90
12872;DHT22;6504;53.766;9.626;2023-03-20T04:08:21;8.10;99.90
12872;DHT22;6504;53.766;9.626;2023-03-20T04:10:50;8.10;99.90
12872;DHT22;6504;53.766;9.626;2023-03-20T04:13:18;8.10;99.90
12872;DHT22;6504;53.766;9.626;2023-03-20T04:15:46;8.00;99.90
12872;DHT22;6504;53.766;9.626;2023-03-20T04:18:16;8.10;99.90
12872;DHT22;6504;53.766;9.626;2023-03-20T04:20:46;8.00;99.90
12872;DHT22;6504;53.766;9.626;2023-03-20T04:23:14;8.00;99.90
12872;DHT22;6504;53.766;9.626;2023-03-20T04:25:42;8.00;99.90
12872;DHT22;6504;53.766;9.626;2023-03-20T04:28:11;8.00;99.90
12872;DHT22;6504;53.766;9.626;2023-03-20T04:30:42;8.00;99.90
12872;DHT22;6504;53.766;9.626;2023-03-20T04:33:13;8.00;99.90
12872;DHT22;6504;53.766;9.626;2023-03-20T04:35:42;8.00;99.90
12872;DHT22;6504;53.766;9.626;2023-03-20T04:38:10;8.00;99.90
12872;DHT22;6504;53.766;9.626;2023-03-20T04:40:38;8.00;99.90
12872;DHT22;6504;53.766;9.626;2023-03-20T04:43:06;7.90;99.90
12872;DHT22;6504;53.766;9.626;2023-03-20T04:45:35;7.90;99.90
12872;DHT22;6504;53.766;9.626;2023-03-20T04:48:05;7.90;99.90
12872;DHT22;6504;53.766;9.626;2023-03-20T04:50:33;7.90;99.90
12872;DHT22;6504;53.766;9.626;2023-03-20T04:53:01;7.90;99.90
12872;DHT22;6504;53.766;9.626;2023-03-20T04:55:29;7.90;99.90
12872;DHT22;6504;53.766;9.626;2023-03-20T04:57:57;7.90;99.90
12872;DHT22;6504;53.766;9.626;2023-03-20T05:00:25;7.90;99.90
12872;DHT22;6504;53.766;9.626;2023-03-20T05:02:54;7.90;99.90
12872;DHT22;6504;53.766;9.626;2023-03-20T05:05:23;7.90;99.90
12872;DHT22;6504;53.766;9.626;2023-03-20T05:07:51;7.90;99.90
12872;DHT22;6504;53.766;9.626;2023-03-20T05:10:19;7.90;99.90
12872;DHT22;6504;53.766;9.626;2023-03-20T05:12:49;7.90;99.90
12872;DHT22;6504;53.766;9.626;2023-03-20T05:15:17;7.90;99.90
12872;DHT22;6504;53.766;9.626;2023-03-20T05:17:46;7.90;99.90
12872;DHT22;6504;53.766;9.626;2023-03-20T05:20:19;7.90;99.90
12872;DHT22;6504;53.766;9.626;2023-03-20T05:22:48;7.90;99.90
12872;DHT22;6504;53.766;9.626;2023-03-20T05:25:17;7.90;99.90
12872;DHT22;6504;53.766;9.626;2023-03-20T05:27:45;8.00;99.90
12872;DHT22;6504;53.766;9.626;2023-03-20T05:30:14;8.00;99.90
12872;DHT22;6504;53.766;9.626;2023-03-20T05:32:42;7.90;99.90
12872;DHT22;6504;53.766;9.626;2023-03-20T05:35:10;8.00;99.90
12872;DHT22;6504;53.766;9.626;2023-03-20T05:37:40;8.00;99.90
12872;DHT22;6504;53.766;9.626;2023-03-20T05:40:11;8.00;99.90
12872;DHT22;6504;53.766;9.626;2023-03-20T05:42:39;8.00;99.90
12872;DHT22;6504;53.766;9.626;2023-03-20T05:45:08;8.00;99.90
12872;DHT22;6504;53.766;9.626;2023-03-20T05:47:36;8.00;99.90
12872;DHT22;6504;53.766;9.626;2023-03-20T05:50:05;7.90;99.90
12872;DHT22;6504;53.766;9.626;2023-03-20T05:52:33;7.90;99.90
12872;DHT22;6504;53.766;9.626;2023-03-20T05:55:03;7.90;99.90
12872;DHT22;6504;53.766;9.626;2023-03-20T05:57:32;8.00;99.90
12872;DHT22;6504;53.766;9.626;2023-03-20T06:00:00;7.90;99.90
12872;DHT22;6504;53.766;9.626;2023-03-20T06:02:28;7.90;99.90
12872;DHT22;6504;53.766;9.626;2023-03-20T06:04:56;7.90;99.90
12872;DHT22;6504;53.766;9.626;2023-03-20T06:07:24;7.80;99.90
12872;DHT22;6504;53.766;9.626;2023-03-20T06:09:52;7.80;99.90
12872;DHT22;6504;53.766;9.626;2023-03-20T06:12:21;7.80;99.90
12872;DHT22;6504;53.766;9.626;2023-03-20T06:14:49;7.80;99.90
12872;DHT22;6504;53.766;9.626;2023-03-20T06:17:17;7.90;99.90
12872;DHT22;6504;53.766;9.626;2023-03-20T06:19:45;7.80;99.90
12872;DHT22;6504;53.766;9.626;2023-03-20T06:22:13;7.80;99.90
12872;DHT22;6504;53.766;9.626;2023-03-20T06:24:41;7.80;99.90
12872;DHT22;6504;53.766;9.626;2023-03-20T06:27:10;7.80;99.90
12872;DHT22;6504;53.766;9.626;2023-03-20T06:29:39;7.80;99.90
12872;DHT22;6504;53.766;9.626;2023-03-20T06:32:08;7.80;99.90
12872;DHT22;6504;53.766;9.626;2023-03-20T06:34:38;7.80;99.90
12872;DHT22;6504;53.766;9.626;2023-03-20T06:37:07;7.80;99.90
12872;DHT22;6504;53.766;9.626;2023-03-20T06:39:35;7.90;99.90
12872;DHT22;6504;53.766;9.626;2023-03-20T06:42:03;7.80;99.90
12872;DHT22;6504;53.766;9.626;2023-03-20T06:44:32;7.90;99.90
12872;DHT22;6504;53.766;9.626;2023-03-20T06:47:01;7.80;99.90
12872;DHT22;6504;53.766;9.626;2023-03-20T06:49:29;7.90;99.90
12872;DHT22;6504;53.766;9.626;2023-03-20T06:51:57;7.90;99.90
12872;DHT22;6504;53.766;9.626;2023-03-20T06:54:25;7.90;99.90
12872;DHT22;6504;53.766;9.626;2023-03-20T06:56:53;7.90;99.90
12872;DHT22;6504;53.766;9.626;2023-03-20T06:59:22;7.90;99.90
12872;DHT22;6504;53.766;9.626;2023-03-20T07:01:50;7.90;99.90
12872;DHT22;6504;53.766;9.626;2023-03-20T07:04:20;7.90;99.90
12872;DHT22;6504;53.766;9.626;2023-03-20T07:06:48;7.90;99.90
12872;DHT22;6504;53.766;9.626;2023-03-20T07:09:20;8.00;99.90
12872;DHT22;6504;53.766;9.626;2023-03-20T07:11:49;7.90;99.90
12872;DHT22;6504;53.766;9.626;2023-03-20T07:14:17;7.90;99.90
12872;DHT22;6504;53.766;9.626;2023-03-20T07:16:45;7.90;99.90
12872;DHT22;6504;53.766;9.626;2023-03-20T07:19:13;8.00;99.90
12872;DHT22;6504;53.766;9.626;2023-03-20T07:21:42;7.90;99.90
12872;DHT22;6504;53.766;9.626;2023-03-20T07:24:10;8.00;99.90
12872;DHT22;6504;53.766;9.626;2023-03-20T07:26:39;7.90;99.90
12872;DHT22;6504;53.766;9.626;2023-03-20T07:29:07;8.00;99.90
12872;DHT22;6504;53.766;9.626;2023-03-20T07:31:35;8.00;99.90
12872;DHT22;6504;53.766;9.626;2023-03-20T07:34:03;8.00;99.90
12872;DHT22;6504;53.766;9.626;2023-03-20T07:36:32;8.00;99.90
12872;DHT22;6504;53.766;9.626;2023-03-20T07:39:01;8.00;99.90
12872;DHT22;6504;53.766;9.626;2023-03-20T07:41:29;8.00;99.90
12872;DHT22;6504;53.766;9.626;2023-03-20T07:43:58;8.00;99.90
12872;DHT22;6504;53.766;9.626;2023-03-20T07:46:26;8.00;99.90
12872;DHT22;6504;53.766;9.626;2023-03-20T07:48:54;8.00;99.90
12872;DHT22;6504;53.766;9.626;2023-03-20T07:51:23;8.00;99.90
12872;DHT22;6504;53.766;9.626;2023-03-20T07:53:52;8.00;99.90
12872;DHT22;6504;53.766;9.626;2023-03-20T07:56:21;8.00;99.90
12872;DHT22;6504;53.766;9.626;2023-03-20T07:58:49;8.00;99.90
12872;DHT22;6504;53.766;9.626;2023-03-20T08:01:17;8.00;99.90
12872;DHT22;6504;53.766;9.626;2023-03-20T08:03:45;8.10;99.90
12872;DHT22;6504;53.766;9.626;2023-03-20T08:06:14;8.10;99.90
12872;DHT22;6504;53.766;9.626;2023-03-20T08:08:43;8.10;99.90
12872;DHT22;6504;53.766;9.626;2023-03-20T08:11:12;8.10;99.90
12872;DHT22;6504;53.766;9.626;2023-03-20T08:13:41;8.10;99.90
12872;DHT22;6504;53.766;9.626;2023-03-20T08:16:09;8.10;99.90
12872;DHT22;6504;53.766;9.626;2023-03-20T08:18:37;8.10;99.90
12872;DHT22;6504;53.766;9.626;2023-03-20T08:21:06;8.10;99.90
12872;DHT22;6504;53.766;9.626;2023-03-20T08:23:34;8.10;99.90
12872;DHT22;6504;53.766;9.626;2023-03-20T08:26:02;8.10;99.90
12872;DHT22;6504;53.766;9.626;2023-03-20T08:28:30;8.10;99.90
12872;DHT22;6504;53.766;9.626;2023-03-20T08:31:15;8.20;99.90
12872;DHT22;6504;53.766;9.626;2023-03-20T08:33:43;8.20;99.90
12872;DHT22;6504;53.766;9.626;2023-03-20T08:36:12;8.20;99.90
12872;DHT22;6504;53.766;9.626;2023-03-20T08:38:42;8.20;99.90
12872;DHT22;6504;53.766;9.626;2023-03-20T08:41:10;8.20;99.90
12872;DHT22;6504;53.766;9.626;2023-03-20T08:43:38;8.20;99.90
12872;DHT22;6504;53.766;9.626;2023-03-20T08:46:06;8.20;99.90
12872;DHT22;6504;53.766;9.626;2023-03-20T08:48:36;8.20;99.90
12872;DHT22;6504;53.766;9.626;2023-03-20T08:51:04;8.20;99.90
12872;DHT22;6504;53.766;9.626;2023-03-20T08:53:33;8.20;99.90
12872;DHT22;6504;53.766;9.626;2023-03-20T08:56:01;8.20;99.90
12872;DHT22;6504;53.766;9.626;2023-03-20T08:58:29;8.20;99.90
12872;DHT22;6504;53.766;9.626;2023-03-20T09:01:02;8.20;99.90
12872;DHT22;6504;53.766;9.626;2023-03-20T09:03:31;8.20;99.90
12872;DHT22;6504;53.766;9.626;2023-03-20T09:06:00;8.20;99.90
12872;DHT22;6504;53.766;9.626;2023-03-20T09:08:28;8.20;99.90
12872;DHT22;6504;53.766;9.626;2023-03-20T09:10:57;8.20;99.90
12872;DHT22;6504;53.766;9.626;2023-03-20T09:13:26;8.20;99.90
12872;DHT22;6504;53.766;9.626;2023-03-20T09:15:55;8.30;99.90
12872;DHT22;6504;53.766;9.626;2023-03-20T09:18:25;8.30;99.90
12872;DHT22;6504;53.766;9.626;2023-03-20T09:20:53;8.30;99.90
12872;DHT22;6504;53.766;9.626;2023-03-20T09:23:23;8.30;99.90
12872;DHT22;6504;53.766;9.626;2023-03-20T09:25:51;8.30;99.90
12872;DHT22;6504;53.766;9.626;2023-03-20T09:28:19;8.30;99.90
12872;DHT22;6504;53.766;9.626;2023-03-20T09:30:47;8.30;99.90
12872;DHT22;6504;53.766;9.626;2023-03-20T09:33:16;8.30;99.90
12872;DHT22;6504;53.766;9.626;2023-03-20T09:35:44;8.30;99.90
12872;DHT22;6504;53.766;9.626;2023-03-20T09:38:12;8.30;99.90
12872;DHT22;6504;53.766;9.626;2023-03-20T09:40:49;8.30;99.90
12872;DHT22;6504;53.766;9.626;2023-03-20T09:43:25;8.30;99.90
12872;DHT22;6504;53.766;9.626;2023-03-20T09:46:03;8.30;99.90
12872;DHT22;6504;53.766;9.626;2023-03-20T09:48:37;8.30;99.90
12872;DHT22;6504;53.766;9.626;2023-03-20T09:51:13;8.30;99.90
12872;DHT22;6504;53.766;9.626;2023-03-20T09:53:46;8.30;99.90
12872;DHT22;6504;53.766;9.626;2023-03-20T09:56:20;8.30;99.90
12872;DHT22;6504;53.766;9.626;2023-03-20T09:58:53;8.30;99.90
12872;DHT22;6504;53.766;9.626;2023-03-20T10:01:25;8.30;99.90
12872;DHT22;6504;53.766;9.626;2023-03-20T10:03:56;8.30;99.90
12872;DHT22;6504;53.766;9.626;2023-03-20T10:06:25;8.30;99.90
12872;DHT22;6504;53.766;9.626;2023-03-20T10:08:53;8.30;99.90
12872;DHT22;6504;53.766;9.626;2023-03-20T10:11:33;8.30;99.90
12872;DHT22;6504;53.766;9.626;2023-03-20T10:14:20;8.30;99.90
12872;DHT22;6504;53.766;9.626;2023-03-20T10:17:03;8.30;99.90
12872;DHT22;6504;53.766;9.626;2023-03-20T10:19:41;8.30;99.90
12872;DHT22;6504;53.766;9.626;2023-03-20T10:22:14;8.30;99.90
12872;DHT22;6504;53.766;9.626;2023-03-20T10:24:48;8.30;99.90
12872;DHT22;6504;53.766;9.626;2023-03-20T10:27:23;8.30;99.90
12872;DHT22;6504;53.766;9.626;2023-03-20T10:30:06;8.40;99.90
12872;DHT22;6504;53.766;9.626;2023-03-20T10:32:43;8.40;99.90
12872;DHT22;6504;53.766;9.626;2023-03-20T10:35:20;8.40;99.90
12872;DHT22;6504;53.766;9.626;2023-03-20T10:38:04;8.40;99.90
12872;DHT22;6504;53.766;9.626;2023-03-20T10:40:37;8.40;99.90
12872;DHT22;6504;53.766;9.626;2023-03-20T10:43:14;8.40;99.90
12872;DHT22;6504;53.766;9.626;2023-03-20T10:45:45;8.40;99.90
12872;DHT22;6504;53.766;9.626;2023-03-20T10:48:22;8.50;99.90
12872;DHT22;6504;53.766;9.626;2023-03-20T10:50:55;8.50;99.90
12872;DHT22;6504;53.766;9.626;2023-03-20T10:53:28;8.50;99.90
12872;DHT22;6504;53.766;9.626;2023-03-20T10:55:59;8.60;99.90
12872;DHT22;6504;53.766;9.626;2023-03-20T10:58:32;8.60;99.90
12872;DHT22;6504;53.766;9.626;2023-03-20T11:01:02;8.60;99.90
12872;DHT22;6504;53.766;9.626;2023-03-20T11:03:31;8.60;99.90
12872;DHT22;6504;53.766;9.626;2023-03-20T11:06:02;8.60;99.90
12872;DHT22;6504;53.766;9.626;2023-03-20T11:08:38;8.60;99.90
12872;DHT22;6504;53.766;9.626;2023-03-20T11:11:07;8.60;99.90
12872;DHT22;6504;53.766;9.626;2023-03-20T11:13:38;8.60;99.90
12872;DHT22;6504;53.766;9.626;2023-03-20T11:16:10;8.60;99.90
12872;DHT22;6504;53.766;9.626;2023-03-20T11:18:43;8.70;99.90
12872;DHT22;6504;53.766;9.626;2023-03-20T11:21:18;8.70;99.90
12872;DHT22;6504;53.766;9.626;2023-03-20T11:23:47;8.70;99.90
12872;DHT22;6504;53.766;9.626;2023-03-20T11:26:17;8.70;99.90
12872;DHT22;6504;53.766;9.626;2023-03-20T11:28:50;8.70;99.90
12872;DHT22;6504;53.766;9.626;2023-03-20T11:31:23;8.70;99.90
12872;DHT22;6504;53.766;9.626;2023-03-20T11:34:00;8.70;99.90
12872;DHT22;6504;53.766;9.626;2023-03-20T11:36:36;8.70;99.90
12872;DHT22;6504;53.766;9.626;2023-03-20T11:39:15;8.80;99.90
12872;DHT22;6504;53.766;9.626;2023-03-20T11:41:47;8.70;99.90
12872;DHT22;6504;53.766;9.626;2023-03-20T11:44:22;8.80;99.90
12872;DHT22;6504;53.766;9.626;2023-03-20T11:46:55;8.80;99.90
12872;DHT22;6504;53.766;9.626;2023-03-20T11:49:25;8.80;99.90
12872;DHT22;6504;53.766;9.626;2023-03-20T11:51:58;8.90;99.90
12872;DHT22;6504;53.766;9.626;2023-03-20T11:54:27;8.90;99.90
12872;DHT22;6504;53.766;9.626;2023-03-20T11:56:57;8.90;99.90
12872;DHT22;6504;53.766;9.626;2023-03-20T11:59:29;8.90;99.90
12872;DHT22;6504;53.766;9.626;2023-03-20T12:02:03;9.00;99.90
12872;DHT22;6504;53.766;9.626;2023-03-20T12:04:32;9.00;99.90
12872;DHT22;6504;53.766;9.626;2023-03-20T12:07:07;9.00;99.90
12872;DHT22;6504;53.766;9.626;2023-03-20T12:09:41;9.10;99.90
12872;DHT22;6504;53.766;9.626;2023-03-20T12:12:21;9.10;99.90
12872;DHT22;6504;53.766;9.626;2023-03-20T12:14:56;9.10;99.90
12872;DHT22;6504;53.766;9.626;2023-03-20T12:17:47;9.20;99.90
12872;DHT22;6504;53.766;9.626;2023-03-20T12:20:31;9.20;99.90
12872;DHT22;6504;53.766;9.626;2023-03-20T12:23:10;9.30;99.90
12872;DHT22;6504;53.766;9.626;2023-03-20T12:25:44;9.30;99.90
12872;DHT22;6504;53.766;9.626;2023-03-20T12:28:19;9.30;99.90
12872;DHT22;6504;53.766;9.626;2023-03-20T12:30:58;9.40;99.90
12872;DHT22;6504;53.766;9.626;2023-03-20T12:33:36;9.40;99.90
12872;DHT22;6504;53.766;9.626;2023-03-20T12:36:12;9.50;99.90
12872;DHT22;6504;53.766;9.626;2023-03-20T12:38:41;9.50;99.90
12872;DHT22;6504;53.766;9.626;2023-03-20T12:41:15;9.50;99.90
12872;DHT22;6504;53.766;9.626;2023-03-20T12:46:55;9.50;99.90
12872;DHT22;6504;53.766;9.626;2023-03-20T12:49:37;9.50;99.90
12872;DHT22;6504;53.766;9.626;2023-03-20T12:52:14;9.50;99.90
12872;DHT22;6504;53.766;9.626;2023-03-20T12:55:01;9.60;99.90
12872;DHT22;6504;53.766;9.626;2023-03-20T12:57:36;9.60;99.90
12872;DHT22;6504;53.766;9.626;2023-03-20T13:00:17;9.60;99.90
12872;DHT22;6504;53.766;9.626;2023-03-20T13:03:03;9.60;99.90
12872;DHT22;6504;53.766;9.626;2023-03-20T13:05:41;9.60;99.90
12872;DHT22;6504;53.766;9.626;2023-03-20T13:08:29;9.60;99.90
12872;DHT22;6504;53.766;9.626;2023-03-20T13:11:08;9.60;99.90
12872;DHT22;6504;53.766;9.626;2023-03-20T13:13:42;9.60;99.90
12872;DHT22;6504;53.766;9.626;2023-03-20T13:16:20;9.60;99.90
12872;DHT22;6504;53.766;9.626;2023-03-20T13:18:57;9.60;99.90
12872;DHT22;6504;53.766;9.626;2023-03-20T13:21:31;9.60;99.90
12872;DHT22;6504;53.766;9.626;2023-03-20T13:24:18;9.60;99.90
12872;DHT22;6504;53.766;9.626;2023-03-20T13:26:53;9.60;99.90
12872;DHT22;6504;53.766;9.626;2023-03-20T13:29:28;9.60;99.90
12872;DHT22;6504;53.766;9.626;2023-03-20T13:32:05;9.60;99.90
12872;DHT22;6504;53.766;9.626;2023-03-20T13:34:51;9.60;99.90
12872;DHT22;6504;53.766;9.626;2023-03-20T13:37:24;9.60;99.90
12872;DHT22;6504;53.766;9.626;2023-03-20T13:39:59;9.60;99.90
12872;DHT22;6504;53.766;9.626;2023-03-20T13:42:33;9.60;99.90
12872;DHT22;6504;53.766;9.626;2023-03-20T13:45:04;9.50;99.90
12872;DHT22;6504;53.766;9.626;2023-03-20T13:47:35;9.50;99.90
12872;DHT22;6504;53.766;9.626;2023-03-20T13:50:22;9.50;99.90
12872;DHT22;6504;53.766;9.626;2023-03-20T13:52:56;9.50;99.90
12872;DHT22;6504;53.766;9.626;2023-03-20T13:55:33;9.50;99.90
12872;DHT22;6504;53.766;9.626;2023-03-20T13:58:18;9.50;99.90
12872;DHT22;6504;53.766;9.626;2023-03-20T14:00:54;9.50;99.90
12872;DHT22;6504;53.766;9.626;2023-03-20T14:03:29;9.50;99.90
12872;DHT22;6504;53.766;9.626;2023-03-20T14:06:00;9.50;99.90
12872;DHT22;6504;53.766;9.626;2023-03-20T14:08:33;9.50;99.90
12872;DHT22;6504;53.766;9.626;2023-03-20T14:11:26;9.50;99.90
12872;DHT22;6504;53.766;9.626;2023-03-20T14:14:10;9.50;99.90
12872;DHT22;6504;53.766;9.626;2023-03-20T14:16:41;9.50;99.90
12872;DHT22;6504;53.766;9.626;2023-03-20T14:19:16;9.50;99.90
12872;DHT22;6504;53.766;9.626;2023-03-20T14:21:50;9.40;99.90
12872;DHT22;6504;53.766;9.626;2023-03-20T14:24:20;9.40;99.90
12872;DHT22;6504;53.766;9.626;2023-03-20T14:26:53;9.40;99.90
12872;DHT22;6504;53.766;9.626;2023-03-20T14:29:34;9.40;99.90
12872;DHT22;6504;53.766;9.626;2023-03-20T14:32:20;9.30;99.90
12872;DHT22;6504;53.766;9.626;2023-03-20T14:34:50;9.30;99.90
12872;DHT22;6504;53.766;9.626;2023-03-20T14:37:35;9.30;99.90
12872;DHT22;6504;53.766;9.626;2023-03-20T14:40:12;9.20;99.90
12872;DHT22;6504;53.766;9.626;2023-03-20T14:42:48;9.20;99.90
12872;DHT22;6504;53.766;9.626;2023-03-20T14:45:33;9.10;99.90
12872;DHT22;6504;53.766;9.626;2023-03-20T14:48:10;9.10;99.90
12872;DHT22;6504;53.766;9.626;2023-03-20T14:50:51;9.10;99.90
12872;DHT22;6504;53.766;9.626;2023-03-20T14:53:24;9.10;99.90
12872;DHT22;6504;53.766;9.626;2023-03-20T14:56:05;9.00;99.90
12872;DHT22;6504;53.766;9.626;2023-03-20T14:58:51;9.00;99.90
12872;DHT22;6504;53.766;9.626;2023-03-20T15:01:39;9.00;99.90
12872;DHT22;6504;53.766;9.626;2023-03-20T15:04:23;9.00;99.90
12872;DHT22;6504;53.766;9.626;2023-03-20T15:06:56;9.00;99.90
12872;DHT22;6504;53.766;9.626;2023-03-20T15:09:27;9.00;99.90
12872;DHT22;6504;53.766;9.626;2023-03-20T15:11:58;9.00;99.90
12872;DHT22;6504;53.766;9.626;2023-03-20T15:14:34;9.00;99.90
12872;DHT22;6504;53.766;9.626;2023-03-20T15:17:16;8.90;99.90
12872;DHT22;6504;53.766;9.626;2023-03-20T15:19:44;8.90;99.90
12872;DHT22;6504;53.766;9.626;2023-03-20T15:22:18;8.90;99.90
12872;DHT22;6504;53.766;9.626;2023-03-20T15:24:53;8.90;99.90
12872;DHT22;6504;53.766;9.626;2023-03-20T15:27:23;8.90;99.90
12872;DHT22;6504;53.766;9.626;2023-03-20T15:29:56;8.90;99.90
12872;DHT22;6504;53.766;9.626;2023-03-20T15:32:25;8.80;99.90
12872;DHT22;6504;53.766;9.626;2023-03-20T15:34:53;8.80;99.90
12872;DHT22;6504;53.766;9.626;2023-03-20T15:37:23;8.80;99.90
12872;DHT22;6504;53.766;9.626;2023-03-20T15:39:53;8.80;99.90
12872;DHT22;6504;53.766;9.626;2023-03-20T15:42:25;8.70;99.90
12872;DHT22;6504;53.766;9.626;2023-03-20T15:44:55;8.70;99.90
12872;DHT22;6504;53.766;9.626;2023-03-20T15:47:24;8.70;99.90
12872;DHT22;6504;53.766;9.626;2023-03-20T15:49:53;8.70;99.90
12872;DHT22;6504;53.766;9.626;2023-03-20T15:52:28;8.70;99.90
12872;DHT22;6504;53.766;9.626;2023-03-20T15:55:01;8.70;99.90
12872;DHT22;6504;53.766;9.626;2023-03-20T15:57:33;8.70;99.90
12872;DHT22;6504;53.766;9.626;2023-03-20T16:00:04;8.70;99.90
12872;DHT22;6504;53.766;9.626;2023-03-20T16:02:34;8.70;99.90
12872;DHT22;6504;53.766;9.626;2023-03-20T16:05:03;8.60;99.90
12872;DHT22;6504;53.766;9.626;2023-03-20T16:07:33;8.70;99.90
12872;DHT22;6504;53.766;9.626;2023-03-20T16:10:03;8.70;99.90
12872;DHT22;6504;53.766;9.626;2023-03-20T16:12:39;8.70;99.90
12872;DHT22;6504;53.766;9.626;2023-03-20T16:15:14;8.70;99.90
12872;DHT22;6504;53.766;9.626;2023-03-20T16:17:42;8.70;99.90
12872;DHT22;6504;53.766;9.626;2023-03-20T16:20:13;8.70;99.90
12872;DHT22;6504;53.766;9.626;2023-03-20T16:22:41;8.70;99.90
12872;DHT22;6504;53.766;9.626;2023-03-20T16:25:14;8.70;99.90
12872;DHT22;6504;53.766;9.626;2023-03-20T16:27:45;8.70;99.90
12872;DHT22;6504;53.766;9.626;2023-03-20T16:30:17;8.70;99.90
12872;DHT22;6504;53.766;9.626;2023-03-20T16:32:47;8.70;99.90
12872;DHT22;6504;53.766;9.626;2023-03-20T16:35:18;8.70;99.90
12872;DHT22;6504;53.766;9.626;2023-03-20T16:37:50;8.70;99.90
12872;DHT22;6504;53.766;9.626;2023-03-20T16:40:27;8.70;99.90
12872;DHT22;6504;53.766;9.626;2023-03-20T16:43:05;8.80;99.90
12872;DHT22;6504;53.766;9.626;2023-03-20T16:45:34;8.80;99.90
12872;DHT22;6504;53.766;9.626;2023-03-20T16:48:24;8.80;99.90
12872;DHT22;6504;53.766;9.626;2023-03-20T16:50:58;8.80;99.90